Terminal Aerodrome Forecast
Issued by NWS

Home | Current Version | Previous Version | Text Only | Print | Product List | Glossary On
Versions: 1 2 3 4 5 6 7 8 9 10 11 12 13
000
FTAK31 PANC 010547
TAFAHO
TAF
PAHO 010547Z 0106/0206 05008KT P6SM SCT040 OVC080
     FM011200 05011KT P6SM VCSH FEW020 OVC040
     FM012100 03010KT 6SM -RA BKN020 OVC035=

USA.gov is the U.S. government's official web portal to all federal, state and local government web resources and services.